Japan Airlines Virtual Airport Information Service

Osaka Kansai International Airport

ICAO: RJBB Country: Japan
Latitude: 34.4273 Longitude: 135.244
Latest Arrival : APJ206 (RJKA-RJBB) Latest Departure : APJ205 (RJBB-RJKA)


WX CaptureLIVE
Data provided by noaa.gov | Fetched at 06:32:03

METAR : RJBB 010600Z 03005KT 9999 FEW025 25/13 Q1010 NOSIG

TAF : RJBB 010505Z 0106/0212 33004KT 9999 FEW030 BECMG 0106/0108 01014KT BECMG 0115/0117 07007KT BECMG 0203/0206 29006KT


Runway Data for RJBB
Data provided by openaviationdata.com

Runway ID Mag Var Hdg Length Elevation Surface ILS Freq ILS Id ILS Slope
6 -7 57° 11483 ft 15 ft Asphalt 108.1 IKD 3
24 -7 237° 11483 ft 15 ft Asphalt 110.7 IKN 3

Osaka Kansai International Airport, Japan
Use only for reference purposes



Not for navigational purposes.